sensor_id;sensor_type;location;lat;lon;timestamp;temperature;humidity
7920;DHT22;18778;47.610;9.776;2023-08-08T00:01:50;11.00;99.90
7920;DHT22;18778;47.610;9.776;2023-08-08T00:04:16;11.10;99.90
7920;DHT22;18778;47.610;9.776;2023-08-08T00:06:42;11.00;99.90
7920;DHT22;18778;47.610;9.776;2023-08-08T00:09:07;11.00;99.90
7920;DHT22;18778;47.610;9.776;2023-08-08T00:11:33;11.10;99.90
7920;DHT22;18778;47.610;9.776;2023-08-08T00:13:59;11.00;99.90
7920;DHT22;18778;47.610;9.776;2023-08-08T00:16:25;11.10;99.90
7920;DHT22;18778;47.610;9.776;2023-08-08T00:18:50;10.70;99.90
7920;DHT22;18778;47.610;9.776;2023-08-08T00:21:19;10.60;99.90
7920;DHT22;18778;47.610;9.776;2023-08-08T00:23:44;10.50;99.90
7920;DHT22;18778;47.610;9.776;2023-08-08T00:26:10;10.40;99.90
7920;DHT22;18778;47.610;9.776;2023-08-08T00:28:36;10.50;99.90
7920;DHT22;18778;47.610;9.776;2023-08-08T00:31:01;10.40;99.90
7920;DHT22;18778;47.610;9.776;2023-08-08T00:33:27;10.90;99.90
7920;DHT22;18778;47.610;9.776;2023-08-08T00:35:53;10.20;99.90
7920;DHT22;18778;47.610;9.776;2023-08-08T00:38:18;11.10;99.90
7920;DHT22;18778;47.610;9.776;2023-08-08T00:40:44;11.00;99.90
7920;DHT22;18778;47.610;9.776;2023-08-08T00:43:10;10.50;99.90
7920;DHT22;18778;47.610;9.776;2023-08-08T00:45:36;10.40;99.90
7920;DHT22;18778;47.610;9.776;2023-08-08T00:48:02;10.60;99.90
7920;DHT22;18778;47.610;9.776;2023-08-08T00:50:28;10.40;99.90
7920;DHT22;18778;47.610;9.776;2023-08-08T00:52:54;10.40;99.90
7920;DHT22;18778;47.610;9.776;2023-08-08T00:55:19;10.90;99.90
7920;DHT22;18778;47.610;9.776;2023-08-08T00:57:45;10.40;99.90
7920;DHT22;18778;47.610;9.776;2023-08-08T01:00:11;10.30;99.90
7920;DHT22;18778;47.610;9.776;2023-08-08T01:02:37;10.30;99.90
7920;DHT22;18778;47.610;9.776;2023-08-08T01:05:03;10.30;99.90
7920;DHT22;18778;47.610;9.776;2023-08-08T01:07:41;10.40;99.90
7920;DHT22;18778;47.610;9.776;2023-08-08T01:10:23;10.40;99.90
7920;DHT22;18778;47.610;9.776;2023-08-08T01:12:54;10.30;99.90
7920;DHT22;18778;47.610;9.776;2023-08-08T01:15:21;10.30;99.90
7920;DHT22;18778;47.610;9.776;2023-08-08T01:17:47;10.40;99.90
7920;DHT22;18778;47.610;9.776;2023-08-08T01:20:14;10.40;99.90
7920;DHT22;18778;47.610;9.776;2023-08-08T01:25:26;10.40;99.90
7920;DHT22;18778;47.610;9.776;2023-08-08T01:27:52;10.40;99.90
7920;DHT22;18778;47.610;9.776;2023-08-08T01:30:17;10.30;99.90
7920;DHT22;18778;47.610;9.776;2023-08-08T01:32:43;10.10;99.90
7920;DHT22;18778;47.610;9.776;2023-08-08T01:35:09;10.00;99.90
7920;DHT22;18778;47.610;9.776;2023-08-08T01:37:54;10.00;99.90
7920;DHT22;18778;47.610;9.776;2023-08-08T01:40:22;9.90;99.90
7920;DHT22;18778;47.610;9.776;2023-08-08T01:42:49;9.80;99.90
7920;DHT22;18778;47.610;9.776;2023-08-08T01:45:16;10.70;99.90
7920;DHT22;18778;47.610;9.776;2023-08-08T01:47:42;10.10;99.90
7920;DHT22;18778;47.610;9.776;2023-08-08T01:50:08;9.80;99.90
7920;DHT22;18778;47.610;9.776;2023-08-08T01:52:34;9.70;99.90
7920;DHT22;18778;47.610;9.776;2023-08-08T01:55:00;9.60;99.90
7920;DHT22;18778;47.610;9.776;2023-08-08T01:57:26;9.50;99.90
7920;DHT22;18778;47.610;9.776;2023-08-08T01:59:51;9.40;99.90
7920;DHT22;18778;47.610;9.776;2023-08-08T02:02:17;9.80;99.90
7920;DHT22;18778;47.610;9.776;2023-08-08T02:04:43;9.10;99.90
7920;DHT22;18778;47.610;9.776;2023-08-08T02:07:09;9.10;99.90
7920;DHT22;18778;47.610;9.776;2023-08-08T02:09:34;9.10;99.90
7920;DHT22;18778;47.610;9.776;2023-08-08T02:12:00;9.10;99.90
7920;DHT22;18778;47.610;9.776;2023-08-08T02:14:26;9.20;99.90
7920;DHT22;18778;47.610;9.776;2023-08-08T02:16:51;10.40;99.90
7920;DHT22;18778;47.610;9.776;2023-08-08T02:19:17;9.40;99.90
7920;DHT22;18778;47.610;9.776;2023-08-08T02:21:42;9.50;99.90
7920;DHT22;18778;47.610;9.776;2023-08-08T02:24:08;9.50;99.90
7920;DHT22;18778;47.610;9.776;2023-08-08T02:26:34;9.40;99.90
7920;DHT22;18778;47.610;9.776;2023-08-08T02:28:59;9.50;99.90
7920;DHT22;18778;47.610;9.776;2023-08-08T02:31:25;9.50;99.90
7920;DHT22;18778;47.610;9.776;2023-08-08T02:33:51;11.80;99.90
7920;DHT22;18778;47.610;9.776;2023-08-08T02:36:17;9.90;99.90
7920;DHT22;18778;47.610;9.776;2023-08-08T02:41:09;10.00;99.90
7920;DHT22;18778;47.610;9.776;2023-08-08T02:55:54;9.90;99.90
7920;DHT22;18778;47.610;9.776;2023-08-08T02:58:23;10.00;99.90
7920;DHT22;18778;47.610;9.776;2023-08-08T03:20:17;10.00;99.90
7920;DHT22;18778;47.610;9.776;2023-08-08T03:28:32;9.80;99.90
7920;DHT22;18778;47.610;9.776;2023-08-08T03:48:00;8.80;99.90
7920;DHT22;18778;47.610;9.776;2023-08-08T03:50:26;8.70;99.90
7920;DHT22;18778;47.610;9.776;2023-08-08T03:55:18;8.70;99.90
7920;DHT22;18778;47.610;9.776;2023-08-08T04:00:10;8.60;99.90
7920;DHT22;18778;47.610;9.776;2023-08-08T04:02:37;8.50;99.90
7920;DHT22;18778;47.610;9.776;2023-08-08T04:05:02;8.50;99.90
7920;DHT22;18778;47.610;9.776;2023-08-08T04:07:28;8.40;99.90
7920;DHT22;18778;47.610;9.776;2023-08-08T04:09:53;8.30;99.90
7920;DHT22;18778;47.610;9.776;2023-08-08T04:19:38;8.20;99.90
7920;DHT22;18778;47.610;9.776;2023-08-08T04:29:21;8.50;99.90
7920;DHT22;18778;47.610;9.776;2023-08-08T04:31:47;8.60;99.90
7920;DHT22;18778;47.610;9.776;2023-08-08T04:34:12;8.70;99.90
7920;DHT22;18778;47.610;9.776;2023-08-08T04:36:38;8.80;99.90
7920;DHT22;18778;47.610;9.776;2023-08-08T04:39:04;8.90;99.90
7920;DHT22;18778;47.610;9.776;2023-08-08T04:41:29;8.90;99.90
7920;DHT22;18778;47.610;9.776;2023-08-08T04:43:55;8.90;99.90
7920;DHT22;18778;47.610;9.776;2023-08-08T04:46:20;9.00;99.90
7920;DHT22;18778;47.610;9.776;2023-08-08T04:48:46;9.00;99.90
7920;DHT22;18778;47.610;9.776;2023-08-08T04:53:37;9.20;99.90
7920;DHT22;18778;47.610;9.776;2023-08-08T04:56:03;11.90;99.90
7920;DHT22;18778;47.610;9.776;2023-08-08T04:58:28;9.70;99.90
7920;DHT22;18778;47.610;9.776;2023-08-08T05:00:54;9.90;99.90
7920;DHT22;18778;47.610;9.776;2023-08-08T05:03:20;9.80;99.90
7920;DHT22;18778;47.610;9.776;2023-08-08T05:05:46;10.10;99.90
7920;DHT22;18778;47.610;9.776;2023-08-08T05:08:12;10.10;99.90
7920;DHT22;18778;47.610;9.776;2023-08-08T05:10:38;10.20;99.90
7920;DHT22;18778;47.610;9.776;2023-08-08T05:18:04;10.50;99.90
7920;DHT22;18778;47.610;9.776;2023-08-08T05:20:29;10.50;99.90
7920;DHT22;18778;47.610;9.776;2023-08-08T05:22:55;12.10;99.90
7920;DHT22;18778;47.610;9.776;2023-08-08T05:25:21;10.70;99.90
7920;DHT22;18778;47.610;9.776;2023-08-08T05:27:46;10.60;99.90
7920;DHT22;18778;47.610;9.776;2023-08-08T05:30:12;10.90;99.90
7920;DHT22;18778;47.610;9.776;2023-08-08T05:32:38;10.70;99.90
7920;DHT22;18778;47.610;9.776;2023-08-08T05:35:04;12.40;99.90
7920;DHT22;18778;47.610;9.776;2023-08-08T05:37:30;10.70;99.90
7920;DHT22;18778;47.610;9.776;2023-08-08T05:39:55;10.60;99.90
7920;DHT22;18778;47.610;9.776;2023-08-08T05:42:21;10.70;99.90
7920;DHT22;18778;47.610;9.776;2023-08-08T05:44:47;10.80;99.90
7920;DHT22;18778;47.610;9.776;2023-08-08T05:47:12;11.60;99.90
7920;DHT22;18778;47.610;9.776;2023-08-08T05:49:38;11.00;99.90
7920;DHT22;18778;47.610;9.776;2023-08-08T05:52:04;11.00;99.90
7920;DHT22;18778;47.610;9.776;2023-08-08T05:54:30;11.00;99.90
7920;DHT22;18778;47.610;9.776;2023-08-08T05:59:22;11.30;99.90
7920;DHT22;18778;47.610;9.776;2023-08-08T06:01:47;11.40;99.90
7920;DHT22;18778;47.610;9.776;2023-08-08T06:04:13;11.70;99.90
7920;DHT22;18778;47.610;9.776;2023-08-08T06:06:39;11.70;99.90
7920;DHT22;18778;47.610;9.776;2023-08-08T06:09:05;11.90;99.90
7920;DHT22;18778;47.610;9.776;2023-08-08T06:11:30;12.00;99.90
7920;DHT22;18778;47.610;9.776;2023-08-08T06:13:59;12.10;99.90
7920;DHT22;18778;47.610;9.776;2023-08-08T06:16:24;12.20;99.90
7920;DHT22;18778;47.610;9.776;2023-08-08T06:23:42;12.50;99.90
7920;DHT22;18778;47.610;9.776;2023-08-08T06:26:07;12.60;99.90
7920;DHT22;18778;47.610;9.776;2023-08-08T06:28:33;12.70;99.90
7920;DHT22;18778;47.610;9.776;2023-08-08T06:31:01;12.90;99.90
7920;DHT22;18778;47.610;9.776;2023-08-08T06:38:23;13.10;99.90
7920;DHT22;18778;47.610;9.776;2023-08-08T06:45:55;13.30;99.90
7920;DHT22;18778;47.610;9.776;2023-08-08T07:08:29;14.20;99.90
7920;DHT22;18778;47.610;9.776;2023-08-08T07:11:00;14.30;99.90
7920;DHT22;18778;47.610;9.776;2023-08-08T07:16:09;14.10;99.90
7920;DHT22;18778;47.610;9.776;2023-08-08T07:39:31;14.90;99.90
7920;DHT22;18778;47.610;9.776;2023-08-08T07:42:03;15.10;99.90
7920;DHT22;18778;47.610;9.776;2023-08-08T07:44:28;15.10;99.90
7920;DHT22;18778;47.610;9.776;2023-08-08T07:46:54;15.30;99.90
7920;DHT22;18778;47.610;9.776;2023-08-08T07:49:20;15.30;99.90
7920;DHT22;18778;47.610;9.776;2023-08-08T07:51:45;15.30;99.90
7920;DHT22;18778;47.610;9.776;2023-08-08T07:54:11;15.10;99.90
7920;DHT22;18778;47.610;9.776;2023-08-08T07:56:38;15.20;99.90
7920;DHT22;18778;47.610;9.776;2023-08-08T07:59:03;15.10;99.90
7920;DHT22;18778;47.610;9.776;2023-08-08T08:01:29;15.10;99.90
7920;DHT22;18778;47.610;9.776;2023-08-08T08:03:55;15.10;99.90
7920;DHT22;18778;47.610;9.776;2023-08-08T08:06:21;15.20;99.90
7920;DHT22;18778;47.610;9.776;2023-08-08T08:08:46;15.40;99.90
7920;DHT22;18778;47.610;9.776;2023-08-08T08:11:12;15.50;99.90
7920;DHT22;18778;47.610;9.776;2023-08-08T08:13:39;15.60;99.90
7920;DHT22;18778;47.610;9.776;2023-08-08T08:16:04;15.80;99.90
7920;DHT22;18778;47.610;9.776;2023-08-08T08:18:31;15.80;99.90
7920;DHT22;18778;47.610;9.776;2023-08-08T08:20:57;15.80;99.90
7920;DHT22;18778;47.610;9.776;2023-08-08T08:23:23;15.80;99.90
7920;DHT22;18778;47.610;9.776;2023-08-08T08:25:48;15.80;99.90
7920;DHT22;18778;47.610;9.776;2023-08-08T08:28:16;15.90;99.90
7920;DHT22;18778;47.610;9.776;2023-08-08T08:30:41;15.90;99.90
7920;DHT22;18778;47.610;9.776;2023-08-08T08:33:07;16.00;99.90
7920;DHT22;18778;47.610;9.776;2023-08-08T08:35:36;16.10;99.90
7920;DHT22;18778;47.610;9.776;2023-08-08T08:38:03;16.20;99.90
7920;DHT22;18778;47.610;9.776;2023-08-08T08:40:30;16.30;99.90
7920;DHT22;18778;47.610;9.776;2023-08-08T08:42:59;16.40;99.90
7920;DHT22;18778;47.610;9.776;2023-08-08T08:45:26;16.50;99.90
7920;DHT22;18778;47.610;9.776;2023-08-08T08:47:54;16.60;99.90
7920;DHT22;18778;47.610;9.776;2023-08-08T08:50:21;16.60;99.90
7920;DHT22;18778;47.610;9.776;2023-08-08T08:52:48;16.60;99.90
7920;DHT22;18778;47.610;9.776;2023-08-08T08:55:14;16.70;99.90
7920;DHT22;18778;47.610;9.776;2023-08-08T08:57:40;16.50;99.90
7920;DHT22;18778;47.610;9.776;2023-08-08T09:00:06;16.50;99.90
7920;DHT22;18778;47.610;9.776;2023-08-08T09:02:33;16.60;99.90
7920;DHT22;18778;47.610;9.776;2023-08-08T09:05:00;17.00;99.90
7920;DHT22;18778;47.610;9.776;2023-08-08T09:07:29;17.20;99.90
7920;DHT22;18778;47.610;9.776;2023-08-08T09:09:57;17.10;99.90
7920;DHT22;18778;47.610;9.776;2023-08-08T09:12:22;17.30;99.90
7920;DHT22;18778;47.610;9.776;2023-08-08T09:14:55;17.40;99.90
7920;DHT22;18778;47.610;9.776;2023-08-08T09:17:21;17.60;99.90
7920;DHT22;18778;47.610;9.776;2023-08-08T09:19:47;17.80;99.90
7920;DHT22;18778;47.610;9.776;2023-08-08T09:22:14;17.80;99.90
7920;DHT22;18778;47.610;9.776;2023-08-08T09:24:41;17.90;99.90
7920;DHT22;18778;47.610;9.776;2023-08-08T09:27:07;17.80;99.90
7920;DHT22;18778;47.610;9.776;2023-08-08T09:29:33;17.90;99.90
7920;DHT22;18778;47.610;9.776;2023-08-08T09:31:58;18.10;99.90
7920;DHT22;18778;47.610;9.776;2023-08-08T09:34:25;18.30;99.90
7920;DHT22;18778;47.610;9.776;2023-08-08T09:36:52;18.50;99.90
7920;DHT22;18778;47.610;9.776;2023-08-08T09:39:18;18.70;99.90
7920;DHT22;18778;47.610;9.776;2023-08-08T09:41:46;18.60;99.90
7920;DHT22;18778;47.610;9.776;2023-08-08T09:44:12;18.70;99.90
7920;DHT22;18778;47.610;9.776;2023-08-08T09:46:37;18.60;99.90
7920;DHT22;18778;47.610;9.776;2023-08-08T09:49:05;18.70;99.90
7920;DHT22;18778;47.610;9.776;2023-08-08T09:51:31;18.80;99.90
7920;DHT22;18778;47.610;9.776;2023-08-08T09:53:59;18.90;99.90
7920;DHT22;18778;47.610;9.776;2023-08-08T09:56:26;19.00;99.90
7920;DHT22;18778;47.610;9.776;2023-08-08T09:58:52;19.40;99.90
7920;DHT22;18778;47.610;9.776;2023-08-08T10:01:20;19.70;99.90
7920;DHT22;18778;47.610;9.776;2023-08-08T10:03:45;19.90;99.90
7920;DHT22;18778;47.610;9.776;2023-08-08T10:06:12;20.10;99.90
7920;DHT22;18778;47.610;9.776;2023-08-08T10:08:38;20.30;99.90
7920;DHT22;18778;47.610;9.776;2023-08-08T10:11:05;20.30;99.90
7920;DHT22;18778;47.610;9.776;2023-08-08T10:13:32;20.40;99.90
7920;DHT22;18778;47.610;9.776;2023-08-08T10:15:58;20.40;99.90
7920;DHT22;18778;47.610;9.776;2023-08-08T10:18:29;20.40;99.90
7920;DHT22;18778;47.610;9.776;2023-08-08T10:20:55;20.30;99.90
7920;DHT22;18778;47.610;9.776;2023-08-08T10:23:23;20.40;99.90
7920;DHT22;18778;47.610;9.776;2023-08-08T10:25:51;20.30;99.90
7920;DHT22;18778;47.610;9.776;2023-08-08T10:28:19;20.40;99.90
7920;DHT22;18778;47.610;9.776;2023-08-08T10:30:53;20.50;99.90
7920;DHT22;18778;47.610;9.776;2023-08-08T10:35:59;20.70;99.90
7920;DHT22;18778;47.610;9.776;2023-08-08T10:38:27;20.80;99.90
7920;DHT22;18778;47.610;9.776;2023-08-08T10:41:01;20.80;99.90
7920;DHT22;18778;47.610;9.776;2023-08-08T10:43:30;20.60;99.90
7920;DHT22;18778;47.610;9.776;2023-08-08T10:46:01;20.60;99.90
7920;DHT22;18778;47.610;9.776;2023-08-08T10:48:27;20.70;99.90
7920;DHT22;18778;47.610;9.776;2023-08-08T10:50:57;20.90;99.90
7920;DHT22;18778;47.610;9.776;2023-08-08T10:53:27;21.10;99.90
7920;DHT22;18778;47.610;9.776;2023-08-08T10:56:02;21.20;99.90
7920;DHT22;18778;47.610;9.776;2023-08-08T10:58:39;21.30;99.90
7920;DHT22;18778;47.610;9.776;2023-08-08T11:01:05;21.10;99.90
7920;DHT22;18778;47.610;9.776;2023-08-08T11:03:39;21.10;99.90
7920;DHT22;18778;47.610;9.776;2023-08-08T11:06:08;21.30;99.90
7920;DHT22;18778;47.610;9.776;2023-08-08T11:08:35;21.50;99.90
7920;DHT22;18778;47.610;9.776;2023-08-08T11:11:02;21.60;99.90
7920;DHT22;18778;47.610;9.776;2023-08-08T11:13:28;21.50;99.90
7920;DHT22;18778;47.610;9.776;2023-08-08T11:15:54;21.60;99.90
7920;DHT22;18778;47.610;9.776;2023-08-08T11:18:20;21.50;99.90
7920;DHT22;18778;47.610;9.776;2023-08-08T11:20:47;21.50;99.90
7920;DHT22;18778;47.610;9.776;2023-08-08T11:23:13;21.60;99.90
7920;DHT22;18778;47.610;9.776;2023-08-08T11:25:43;21.60;99.90
7920;DHT22;18778;47.610;9.776;2023-08-08T11:28:09;21.70;99.90
7920;DHT22;18778;47.610;9.776;2023-08-08T11:30:38;21.80;99.90
7920;DHT22;18778;47.610;9.776;2023-08-08T11:33:04;21.80;99.90
7920;DHT22;18778;47.610;9.776;2023-08-08T11:35:30;21.80;99.90
7920;DHT22;18778;47.610;9.776;2023-08-08T11:37:57;21.70;99.90
7920;DHT22;18778;47.610;9.776;2023-08-08T11:40:25;21.80;99.90
7920;DHT22;18778;47.610;9.776;2023-08-08T11:42:52;22.00;99.90
7920;DHT22;18778;47.610;9.776;2023-08-08T11:45:19;22.00;99.90
7920;DHT22;18778;47.610;9.776;2023-08-08T11:47:49;22.10;99.90
7920;DHT22;18778;47.610;9.776;2023-08-08T11:50:15;21.90;99.90
7920;DHT22;18778;47.610;9.776;2023-08-08T11:52:42;22.10;99.90
7920;DHT22;18778;47.610;9.776;2023-08-08T11:55:12;22.10;99.90
7920;DHT22;18778;47.610;9.776;2023-08-08T11:57:41;22.30;99.90
7920;DHT22;18778;47.610;9.776;2023-08-08T12:00:09;22.30;99.90
7920;DHT22;18778;47.610;9.776;2023-08-08T12:02:35;22.40;99.90
7920;DHT22;18778;47.610;9.776;2023-08-08T12:05:08;22.40;99.90
7920;DHT22;18778;47.610;9.776;2023-08-08T12:07:35;22.40;99.90
7920;DHT22;18778;47.610;9.776;2023-08-08T12:10:03;22.50;99.90
7920;DHT22;18778;47.610;9.776;2023-08-08T12:12:31;22.80;99.90
7920;DHT22;18778;47.610;9.776;2023-08-08T12:15:03;23.10;99.90
7920;DHT22;18778;47.610;9.776;2023-08-08T12:17:30;23.10;99.90
7920;DHT22;18778;47.610;9.776;2023-08-08T12:19:59;23.00;99.90
7920;DHT22;18778;47.610;9.776;2023-08-08T12:22:25;23.00;99.90
7920;DHT22;18778;47.610;9.776;2023-08-08T12:24:51;22.90;99.70
7920;DHT22;18778;47.610;9.776;2023-08-08T12:27:17;22.80;99.90
7920;DHT22;18778;47.610;9.776;2023-08-08T12:29:43;22.70;99.90
7920;DHT22;18778;47.610;9.776;2023-08-08T12:32:09;22.70;99.90
7920;DHT22;18778;47.610;9.776;2023-08-08T12:34:35;23.00;99.20
7920;DHT22;18778;47.610;9.776;2023-08-08T12:37:01;22.80;99.90
7920;DHT22;18778;47.610;9.776;2023-08-08T12:39:28;22.40;99.90
7920;DHT22;18778;47.610;9.776;2023-08-08T12:41:54;22.70;99.90
7920;DHT22;18778;47.610;9.776;2023-08-08T12:44:19;23.30;99.90
7920;DHT22;18778;47.610;9.776;2023-08-08T12:46:45;23.70;99.90
7920;DHT22;18778;47.610;9.776;2023-08-08T12:49:10;24.10;98.20
7920;DHT22;18778;47.610;9.776;2023-08-08T12:51:36;24.10;97.20
7920;DHT22;18778;47.610;9.776;2023-08-08T12:54:02;24.00;99.60
7920;DHT22;18778;47.610;9.776;2023-08-08T12:56:27;23.90;99.10
7920;DHT22;18778;47.610;9.776;2023-08-08T12:58:53;23.70;99.90
7920;DHT22;18778;47.610;9.776;2023-08-08T13:01:19;23.60;97.10
7920;DHT22;18778;47.610;9.776;2023-08-08T13:03:44;23.80;99.90
7920;DHT22;18778;47.610;9.776;2023-08-08T13:06:10;24.30;99.00
7920;DHT22;18778;47.610;9.776;2023-08-08T13:08:37;24.30;98.40
7920;DHT22;18778;47.610;9.776;2023-08-08T13:11:03;24.30;97.10
7920;DHT22;18778;47.610;9.776;2023-08-08T13:13:29;24.00;99.10
7920;DHT22;18778;47.610;9.776;2023-08-08T13:15:54;24.00;98.00
7920;DHT22;18778;47.610;9.776;2023-08-08T13:18:20;24.30;94.60
7920;DHT22;18778;47.610;9.776;2023-08-08T13:20:45;24.50;98.00
7920;DHT22;18778;47.610;9.776;2023-08-08T13:23:11;24.50;95.90
7920;DHT22;18778;47.610;9.776;2023-08-08T13:25:37;24.30;97.40
7920;DHT22;18778;47.610;9.776;2023-08-08T13:28:02;24.10;96.10
7920;DHT22;18778;47.610;9.776;2023-08-08T13:30:29;24.10;97.40
7920;DHT22;18778;47.610;9.776;2023-08-08T13:32:55;24.00;96.50
7920;DHT22;18778;47.610;9.776;2023-08-08T13:35:20;24.00;94.70
7920;DHT22;18778;47.610;9.776;2023-08-08T13:37:46;24.30;95.00
7920;DHT22;18778;47.610;9.776;2023-08-08T13:40:16;24.10;96.10
7920;DHT22;18778;47.610;9.776;2023-08-08T13:42:42;24.00;97.80
7920;DHT22;18778;47.610;9.776;2023-08-08T13:45:08;24.50;96.20
7920;DHT22;18778;47.610;9.776;2023-08-08T13:47:34;24.50;94.90
7920;DHT22;18778;47.610;9.776;2023-08-08T13:50:00;24.60;95.50
7920;DHT22;18778;47.610;9.776;2023-08-08T13:52:26;24.50;94.30
7920;DHT22;18778;47.610;9.776;2023-08-08T13:54:52;24.60;95.80
7920;DHT22;18778;47.610;9.776;2023-08-08T13:57:17;24.60;93.70
7920;DHT22;18778;47.610;9.776;2023-08-08T13:59:43;24.40;95.10
7920;DHT22;18778;47.610;9.776;2023-08-08T14:02:08;24.10;93.90
7920;DHT22;18778;47.610;9.776;2023-08-08T14:04:34;24.10;94.80
7920;DHT22;18778;47.610;9.776;2023-08-08T14:06:59;24.30;94.90
7920;DHT22;18778;47.610;9.776;2023-08-08T14:09:25;24.60;95.80
7920;DHT22;18778;47.610;9.776;2023-08-08T14:11:51;24.70;93.90
7920;DHT22;18778;47.610;9.776;2023-08-08T14:14:16;24.70;91.30
7920;DHT22;18778;47.610;9.776;2023-08-08T14:16:42;24.60;91.40
7920;DHT22;18778;47.610;9.776;2023-08-08T14:19:08;24.50;92.00
7920;DHT22;18778;47.610;9.776;2023-08-08T14:21:33;24.50;92.30
7920;DHT22;18778;47.610;9.776;2023-08-08T14:23:59;24.50;93.10
7920;DHT22;18778;47.610;9.776;2023-08-08T14:26:25;24.50;92.10
7920;DHT22;18778;47.610;9.776;2023-08-08T14:28:51;24.60;91.10
7920;DHT22;18778;47.610;9.776;2023-08-08T14:31:17;24.50;93.60
7920;DHT22;18778;47.610;9.776;2023-08-08T14:33:42;24.90;91.20
7920;DHT22;18778;47.610;9.776;2023-08-08T14:36:08;25.60;92.70
7920;DHT22;18778;47.610;9.776;2023-08-08T14:38:37;25.50;90.80
7920;DHT22;18778;47.610;9.776;2023-08-08T14:43:29;25.00;89.70
7920;DHT22;18778;47.610;9.776;2023-08-08T14:45:54;24.30;91.80
7920;DHT22;18778;47.610;9.776;2023-08-08T14:48:20;24.10;91.50
7920;DHT22;18778;47.610;9.776;2023-08-08T14:50:46;24.20;92.80
7920;DHT22;18778;47.610;9.776;2023-08-08T14:53:11;24.80;92.40
7920;DHT22;18778;47.610;9.776;2023-08-08T14:55:38;25.50;90.30
7920;DHT22;18778;47.610;9.776;2023-08-08T15:00:30;26.80;89.20
7920;DHT22;18778;47.610;9.776;2023-08-08T15:02:56;26.90;89.30
7920;DHT22;18778;47.610;9.776;2023-08-08T15:05:22;26.70;89.20
7920;DHT22;18778;47.610;9.776;2023-08-08T15:07:48;26.20;88.50
7920;DHT22;18778;47.610;9.776;2023-08-08T15:10:13;25.70;88.00
7920;DHT22;18778;47.610;9.776;2023-08-08T15:12:39;25.10;88.60
7920;DHT22;18778;47.610;9.776;2023-08-08T15:15:06;25.10;93.20
7920;DHT22;18778;47.610;9.776;2023-08-08T15:17:33;25.10;89.70
7920;DHT22;18778;47.610;9.776;2023-08-08T15:20:00;25.00;90.90
7920;DHT22;18778;47.610;9.776;2023-08-08T15:22:25;24.60;89.90
7920;DHT22;18778;47.610;9.776;2023-08-08T15:24:51;24.40;93.10
7920;DHT22;18778;47.610;9.776;2023-08-08T15:27:16;24.10;95.20
7920;DHT22;18778;47.610;9.776;2023-08-08T15:29:42;24.00;94.00
7920;DHT22;18778;47.610;9.776;2023-08-08T15:32:08;24.00;93.00
7920;DHT22;18778;47.610;9.776;2023-08-08T15:34:33;23.60;94.80
7920;DHT22;18778;47.610;9.776;2023-08-08T15:36:59;23.70;93.10
7920;DHT22;18778;47.610;9.776;2023-08-08T15:39:26;23.70;92.80
7920;DHT22;18778;47.610;9.776;2023-08-08T15:41:52;23.60;91.70
7920;DHT22;18778;47.610;9.776;2023-08-08T15:44:18;23.60;92.60
7920;DHT22;18778;47.610;9.776;2023-08-08T15:46:43;23.60;92.10
7920;DHT22;18778;47.610;9.776;2023-08-08T15:49:09;23.70;94.00
7920;DHT22;18778;47.610;9.776;2023-08-08T15:51:41;23.90;91.40
7920;DHT22;18778;47.610;9.776;2023-08-08T15:54:07;24.20;91.90
7920;DHT22;18778;47.610;9.776;2023-08-08T15:56:33;24.40;91.40
7920;DHT22;18778;47.610;9.776;2023-08-08T16:06:17;24.80;91.20
7920;DHT22;18778;47.610;9.776;2023-08-08T16:08:42;24.90;90.00
7920;DHT22;18778;47.610;9.776;2023-08-08T16:11:08;25.40;90.60
7920;DHT22;18778;47.610;9.776;2023-08-08T16:13:34;25.40;90.10
7920;DHT22;18778;47.610;9.776;2023-08-08T16:16:00;25.60;90.00
7920;DHT22;18778;47.610;9.776;2023-08-08T16:18:28;26.00;90.00
7920;DHT22;18778;47.610;9.776;2023-08-08T16:20:54;26.40;86.60
7920;DHT22;18778;47.610;9.776;2023-08-08T16:23:20;26.90;83.90
7920;DHT22;18778;47.610;9.776;2023-08-08T16:25:47;27.70;85.00
7920;DHT22;18778;47.610;9.776;2023-08-08T16:28:12;28.70;79.00
7920;DHT22;18778;47.610;9.776;2023-08-08T16:30:38;29.10;76.10
7920;DHT22;18778;47.610;9.776;2023-08-08T16:33:03;29.10;75.20
7920;DHT22;18778;47.610;9.776;2023-08-08T16:35:29;29.10;75.80
7920;DHT22;18778;47.610;9.776;2023-08-08T16:37:54;28.80;74.30
7920;DHT22;18778;47.610;9.776;2023-08-08T16:40:21;27.40;78.30
7920;DHT22;18778;47.610;9.776;2023-08-08T16:42:47;26.20;79.50
7920;DHT22;18778;47.610;9.776;2023-08-08T16:45:12;25.00;85.80
7920;DHT22;18778;47.610;9.776;2023-08-08T16:47:38;23.50;87.20
7920;DHT22;18778;47.610;9.776;2023-08-08T16:50:04;23.20;88.00
7920;DHT22;18778;47.610;9.776;2023-08-08T16:52:30;22.60;89.30
7920;DHT22;18778;47.610;9.776;2023-08-08T16:54:56;22.20;91.20
7920;DHT22;18778;47.610;9.776;2023-08-08T16:57:21;21.60;91.10
7920;DHT22;18778;47.610;9.776;2023-08-08T16:59:47;21.50;91.50
7920;DHT22;18778;47.610;9.776;2023-08-08T17:02:12;21.40;92.80
7920;DHT22;18778;47.610;9.776;2023-08-08T17:04:38;21.30;91.70
7920;DHT22;18778;47.610;9.776;2023-08-08T17:07:04;21.10;93.60
7920;DHT22;18778;47.610;9.776;2023-08-08T17:09:31;21.10;93.90
7920;DHT22;18778;47.610;9.776;2023-08-08T17:11:56;20.90;94.20
7920;DHT22;18778;47.610;9.776;2023-08-08T17:19:16;20.50;92.60
7920;DHT22;18778;47.610;9.776;2023-08-08T17:21:42;20.40;94.50
7920;DHT22;18778;47.610;9.776;2023-08-08T17:24:07;20.30;93.80
7920;DHT22;18778;47.610;9.776;2023-08-08T17:26:33;20.20;95.70
7920;DHT22;18778;47.610;9.776;2023-08-08T17:29:00;20.10;94.90
7920;DHT22;18778;47.610;9.776;2023-08-08T17:31:25;20.00;95.50
7920;DHT22;18778;47.610;9.776;2023-08-08T17:33:51;20.00;95.20
7920;DHT22;18778;47.610;9.776;2023-08-08T17:36:16;19.80;96.00
7920;DHT22;18778;47.610;9.776;2023-08-08T17:38:42;19.70;96.40
7920;DHT22;18778;47.610;9.776;2023-08-08T17:41:07;19.60;96.40
7920;DHT22;18778;47.610;9.776;2023-08-08T17:43:33;19.50;96.60
7920;DHT22;18778;47.610;9.776;2023-08-08T17:45:58;19.40;97.10
7920;DHT22;18778;47.610;9.776;2023-08-08T17:48:24;19.30;97.00
7920;DHT22;18778;47.610;9.776;2023-08-08T17:50:52;18.80;97.50
7920;DHT22;18778;47.610;9.776;2023-08-08T17:53:18;19.40;98.30
7920;DHT22;18778;47.610;9.776;2023-08-08T17:55:44;18.70;97.90
7920;DHT22;18778;47.610;9.776;2023-08-08T17:58:09;18.70;98.70
7920;DHT22;18778;47.610;9.776;2023-08-08T18:00:35;19.50;99.90
7920;DHT22;18778;47.610;9.776;2023-08-08T18:03:01;18.50;99.80
7920;DHT22;18778;47.610;9.776;2023-08-08T18:07:54;18.30;99.80
7920;DHT22;18778;47.610;9.776;2023-08-08T18:10:20;18.20;99.80
7920;DHT22;18778;47.610;9.776;2023-08-08T18:12:45;18.20;99.90
7920;DHT22;18778;47.610;9.776;2023-08-08T18:15:11;18.10;99.90
7920;DHT22;18778;47.610;9.776;2023-08-08T18:17:37;18.10;99.90
7920;DHT22;18778;47.610;9.776;2023-08-08T18:20:02;18.00;99.90
7920;DHT22;18778;47.610;9.776;2023-08-08T18:22:31;17.90;99.90
7920;DHT22;18778;47.610;9.776;2023-08-08T18:24:57;17.90;99.90
7920;DHT22;18778;47.610;9.776;2023-08-08T18:27:22;18.00;99.90
7920;DHT22;18778;47.610;9.776;2023-08-08T18:29:49;17.60;99.90
7920;DHT22;18778;47.610;9.776;2023-08-08T18:32:15;17.90;99.90